Breedsville, MI (49027)

6:46 PM EST on February 14, 2016 (GMT -0500)
Columbia Twp | | Change Station
CLOSE
Current Station
Personal Weather Station
Location: Grand Junction, MI
Elevation: 665 ft
Nearby Weather Stations

Elev 665 ft 42.41 °N, 86.05 °W | Updated 5 seconds ago

Snow
Snow
17.6 °F
Feels Like 18 °F
N
1.1
Wind Variable Wind from ESE
Gusts 3.8 mph

Today
High -- | Low -- °F
--% Chance of Precip.
Yesterday
High -- | Low -- °F
Precip. -- in
Pressure 30.15 in
Visibility 3.0 miles
Clouds Overcast 1400 ft
Windchill 18 °F
Dew Point 11 °F
Humidity 75%
Rainfall 0.00 in
Snow Depth Not available.
7:42 AM 6:14 PM
Waxing Crescent, 46% visible
METAR KLWA 142336Z AUTO 14009KT 3SM -SN OVC014 M09/M11 A3015 RMK AO2 T10861113
Pressure 30.15 in
Visibility 3.0 miles
Clouds Overcast 1400 ft
Windchill 18 °F
Dew Point 11 °F
Humidity 75%
Rainfall 0.00 in
Snow Depth Not available.
7:42 AM 6:14 PM
Waxing Crescent, 46% visible
METAR KLWA 142336Z AUTO 14009KT 3SM -SN OVC014 M09/M11 A3015 RMK AO2 T10861113

10-Day Weather Forecast

Almanac

Astronomy

Feb. 14, 2016 Rise Set
Actual Time
Civil Twilight
Nautical Twilight
Astronomical Twilight
Moon
Length of Visible Light
Length of Day
Tomorrow will be .
, % of the Moon is Illuminated

Today's Extremes

State Highs State Lows

Community

WunderPhotos

Upload Photos

1,892,929 photos uploaded!

WunderBlog® & News

Nearby

Air Quality

  Air Quality AQ Index Pollutant
Not available.

Snow Depth

Station Depth Elevation

Earthquake Activity

City Distance Mag. Time & Date
Minimum magnitude displayed is 2.5.

Coastal Water Temperatures

Place Temperature

Stations

Nearby Weather Stations

Station Location Temp. Windchill Dew Point Humidity Wind Precip. Elev Updated Type
                   

Watches & Warnings

There are currently no watches in effect.